sensor_id;sensor_type;location;lat;lon;timestamp;temperature;humidity
1978;DHT22;989;53.016;8.346;2022-12-24T00:01:20;8.20;99.90
1978;DHT22;989;53.016;8.346;2022-12-24T00:03:46;8.20;99.90
1978;DHT22;989;53.016;8.346;2022-12-24T00:06:17;8.30;99.90
1978;DHT22;989;53.016;8.346;2022-12-24T00:08:44;8.20;99.90
1978;DHT22;989;53.016;8.346;2022-12-24T00:11:10;8.20;99.90
1978;DHT22;989;53.016;8.346;2022-12-24T00:13:36;8.20;99.90
1978;DHT22;989;53.016;8.346;2022-12-24T00:16:01;8.20;99.90
1978;DHT22;989;53.016;8.346;2022-12-24T00:18:27;8.10;99.90
1978;DHT22;989;53.016;8.346;2022-12-24T00:20:53;8.10;99.90
1978;DHT22;989;53.016;8.346;2022-12-24T00:23:19;8.10;99.90
1978;DHT22;989;53.016;8.346;2022-12-24T00:25:45;8.20;99.90
1978;DHT22;989;53.016;8.346;2022-12-24T00:28:11;8.20;99.90
1978;DHT22;989;53.016;8.346;2022-12-24T00:30:38;8.20;99.90
1978;DHT22;989;53.016;8.346;2022-12-24T00:33:04;8.20;99.90
1978;DHT22;989;53.016;8.346;2022-12-24T00:35:33;8.20;99.90
1978;DHT22;989;53.016;8.346;2022-12-24T00:37:59;8.30;99.90
1978;DHT22;989;53.016;8.346;2022-12-24T00:40:25;8.30;99.90
1978;DHT22;989;53.016;8.346;2022-12-24T00:42:51;8.30;99.90
1978;DHT22;989;53.016;8.346;2022-12-24T00:45:16;8.20;99.90
1978;DHT22;989;53.016;8.346;2022-12-24T00:47:42;8.30;99.90
1978;DHT22;989;53.016;8.346;2022-12-24T00:50:08;8.20;99.90
1978;DHT22;989;53.016;8.346;2022-12-24T00:52:34;8.20;99.90
1978;DHT22;989;53.016;8.346;2022-12-24T00:55:00;8.30;99.90
1978;DHT22;989;53.016;8.346;2022-12-24T00:57:26;8.30;99.90
1978;DHT22;989;53.016;8.346;2022-12-24T00:59:51;8.20;99.90
1978;DHT22;989;53.016;8.346;2022-12-24T01:02:17;8.20;99.90
1978;DHT22;989;53.016;8.346;2022-12-24T01:04:43;8.30;99.90
1978;DHT22;989;53.016;8.346;2022-12-24T01:07:31;8.30;99.90
1978;DHT22;989;53.016;8.346;2022-12-24T01:09:57;8.30;99.90
1978;DHT22;989;53.016;8.346;2022-12-24T01:12:23;8.30;99.90
1978;DHT22;989;53.016;8.346;2022-12-24T01:14:49;8.30;99.90
1978;DHT22;989;53.016;8.346;2022-12-24T01:17:15;8.20;99.90
1978;DHT22;989;53.016;8.346;2022-12-24T01:19:41;8.20;99.90
1978;DHT22;989;53.016;8.346;2022-12-24T01:22:07;8.30;99.90
1978;DHT22;989;53.016;8.346;2022-12-24T01:24:32;8.30;99.90
1978;DHT22;989;53.016;8.346;2022-12-24T01:26:58;8.30;99.90
1978;DHT22;989;53.016;8.346;2022-12-24T01:29:23;8.20;99.90
1978;DHT22;989;53.016;8.346;2022-12-24T01:31:49;8.20;99.90
1978;DHT22;989;53.016;8.346;2022-12-24T01:34:15;8.20;99.90
1978;DHT22;989;53.016;8.346;2022-12-24T01:36:40;8.20;99.90
1978;DHT22;989;53.016;8.346;2022-12-24T01:39:06;8.30;99.90
1978;DHT22;989;53.016;8.346;2022-12-24T01:41:32;8.20;99.90
1978;DHT22;989;53.016;8.346;2022-12-24T01:47:28;8.30;99.90
1978;DHT22;989;53.016;8.346;2022-12-24T01:50:00;8.20;99.90
1978;DHT22;989;53.016;8.346;2022-12-24T01:52:31;8.30;99.90
1978;DHT22;989;53.016;8.346;2022-12-24T01:55:14;8.40;99.90
1978;DHT22;989;53.016;8.346;2022-12-24T01:57:49;8.30;99.90
1978;DHT22;989;53.016;8.346;2022-12-24T02:00:17;8.30;99.90
1978;DHT22;989;53.016;8.346;2022-12-24T02:02:45;8.40;99.90
1978;DHT22;989;53.016;8.346;2022-12-24T02:05:22;8.30;99.90
1978;DHT22;989;53.016;8.346;2022-12-24T02:07:49;8.20;99.90
1978;DHT22;989;53.016;8.346;2022-12-24T02:10:16;8.10;99.90
1978;DHT22;989;53.016;8.346;2022-12-24T02:12:43;8.20;99.90
1978;DHT22;989;53.016;8.346;2022-12-24T02:15:12;8.20;99.90
1978;DHT22;989;53.016;8.346;2022-12-24T02:30:06;8.30;99.90
1978;DHT22;989;53.016;8.346;2022-12-24T02:33:25;8.30;99.90
1978;DHT22;989;53.016;8.346;2022-12-24T02:36:10;8.40;99.90
1978;DHT22;989;53.016;8.346;2022-12-24T02:41:23;8.40;99.90
1978;DHT22;989;53.016;8.346;2022-12-24T02:43:52;8.40;99.90
1978;DHT22;989;53.016;8.346;2022-12-24T02:46:24;8.40;99.90
1978;DHT22;989;53.016;8.346;2022-12-24T02:48:51;8.40;99.90
1978;DHT22;989;53.016;8.346;2022-12-24T02:51:22;8.30;99.90
1978;DHT22;989;53.016;8.346;2022-12-24T02:53:49;8.30;99.90
1978;DHT22;989;53.016;8.346;2022-12-24T02:59:24;8.50;99.90
1978;DHT22;989;53.016;8.346;2022-12-24T03:05:17;8.50;99.90
1978;DHT22;989;53.016;8.346;2022-12-24T03:07:56;8.40;99.90
1978;DHT22;989;53.016;8.346;2022-12-24T03:13:27;8.40;99.90
1978;DHT22;989;53.016;8.346;2022-12-24T03:15:54;8.50;99.90
1978;DHT22;989;53.016;8.346;2022-12-24T03:18:23;8.40;99.90
1978;DHT22;989;53.016;8.346;2022-12-24T03:21:08;8.50;99.90
1978;DHT22;989;53.016;8.346;2022-12-24T03:23:37;8.50;99.90
1978;DHT22;989;53.016;8.346;2022-12-24T03:26:06;8.50;99.90
1978;DHT22;989;53.016;8.346;2022-12-24T03:28:37;8.50;99.90
1978;DHT22;989;53.016;8.346;2022-12-24T03:31:06;8.50;99.90
1978;DHT22;989;53.016;8.346;2022-12-24T03:33:33;8.60;99.90
1978;DHT22;989;53.016;8.346;2022-12-24T03:35:59;8.70;99.90
1978;DHT22;989;53.016;8.346;2022-12-24T03:38:25;8.70;99.90
1978;DHT22;989;53.016;8.346;2022-12-24T03:40:51;8.80;99.90
1978;DHT22;989;53.016;8.346;2022-12-24T03:43:17;8.90;99.90
1978;DHT22;989;53.016;8.346;2022-12-24T03:45:42;9.00;99.90
1978;DHT22;989;53.016;8.346;2022-12-24T03:48:08;9.10;99.90
1978;DHT22;989;53.016;8.346;2022-12-24T03:50:34;9.10;99.90
1978;DHT22;989;53.016;8.346;2022-12-24T03:52:59;9.10;99.90
1978;DHT22;989;53.016;8.346;2022-12-24T03:55:25;9.20;99.90
1978;DHT22;989;53.016;8.346;2022-12-24T03:57:51;9.20;99.90
1978;DHT22;989;53.016;8.346;2022-12-24T04:00:17;9.30;99.90
1978;DHT22;989;53.016;8.346;2022-12-24T04:02:43;9.40;99.90
1978;DHT22;989;53.016;8.346;2022-12-24T04:05:16;9.50;99.90
1978;DHT22;989;53.016;8.346;2022-12-24T04:07:43;9.70;99.90
1978;DHT22;989;53.016;8.346;2022-12-24T04:10:09;9.70;99.90
1978;DHT22;989;53.016;8.346;2022-12-24T04:12:36;9.80;99.90
1978;DHT22;989;53.016;8.346;2022-12-24T04:15:02;9.90;99.90
1978;DHT22;989;53.016;8.346;2022-12-24T04:17:29;9.90;99.90
1978;DHT22;989;53.016;8.346;2022-12-24T04:19:54;9.90;99.90
1978;DHT22;989;53.016;8.346;2022-12-24T04:22:20;9.90;99.90
1978;DHT22;989;53.016;8.346;2022-12-24T04:24:45;10.00;99.90
1978;DHT22;989;53.016;8.346;2022-12-24T04:27:13;10.00;99.90
1978;DHT22;989;53.016;8.346;2022-12-24T04:29:39;10.00;99.90
1978;DHT22;989;53.016;8.346;2022-12-24T04:32:05;10.00;99.90
1978;DHT22;989;53.016;8.346;2022-12-24T04:34:30;10.10;99.90
1978;DHT22;989;53.016;8.346;2022-12-24T04:36:56;10.10;99.90
1978;DHT22;989;53.016;8.346;2022-12-24T04:39:22;10.00;99.90
1978;DHT22;989;53.016;8.346;2022-12-24T04:41:48;10.10;99.90
1978;DHT22;989;53.016;8.346;2022-12-24T04:44:13;10.10;99.90
1978;DHT22;989;53.016;8.346;2022-12-24T04:46:39;10.10;99.90
1978;DHT22;989;53.016;8.346;2022-12-24T04:49:07;10.10;99.90
1978;DHT22;989;53.016;8.346;2022-12-24T04:51:33;10.10;99.90
1978;DHT22;989;53.016;8.346;2022-12-24T04:53:59;10.10;99.90
1978;DHT22;989;53.016;8.346;2022-12-24T04:56:27;10.20;99.90
1978;DHT22;989;53.016;8.346;2022-12-24T04:58:54;10.20;99.90
1978;DHT22;989;53.016;8.346;2022-12-24T05:01:23;10.20;99.90
1978;DHT22;989;53.016;8.346;2022-12-24T05:03:50;10.20;99.90
1978;DHT22;989;53.016;8.346;2022-12-24T05:06:21;10.20;99.90
1978;DHT22;989;53.016;8.346;2022-12-24T05:08:48;10.20;99.90
1978;DHT22;989;53.016;8.346;2022-12-24T05:11:14;10.20;99.90
1978;DHT22;989;53.016;8.346;2022-12-24T05:13:41;10.30;99.90
1978;DHT22;989;53.016;8.346;2022-12-24T05:16:09;10.20;99.90
1978;DHT22;989;53.016;8.346;2022-12-24T05:18:35;10.20;99.90
1978;DHT22;989;53.016;8.346;2022-12-24T05:21:01;10.30;99.90
1978;DHT22;989;53.016;8.346;2022-12-24T05:23:27;10.30;99.90
1978;DHT22;989;53.016;8.346;2022-12-24T05:26:29;10.30;99.90
1978;DHT22;989;53.016;8.346;2022-12-24T05:29:13;10.30;99.90
1978;DHT22;989;53.016;8.346;2022-12-24T05:31:39;10.30;99.90
1978;DHT22;989;53.016;8.346;2022-12-24T05:34:07;10.40;99.90
1978;DHT22;989;53.016;8.346;2022-12-24T05:36:33;10.40;99.90
1978;DHT22;989;53.016;8.346;2022-12-24T05:38:59;10.40;99.90
1978;DHT22;989;53.016;8.346;2022-12-24T05:41:26;10.40;99.90
1978;DHT22;989;53.016;8.346;2022-12-24T05:43:51;10.40;99.90
1978;DHT22;989;53.016;8.346;2022-12-24T05:46:19;10.40;99.90
1978;DHT22;989;53.016;8.346;2022-12-24T05:48:46;10.40;99.90
1978;DHT22;989;53.016;8.346;2022-12-24T05:51:14;10.40;99.90
1978;DHT22;989;53.016;8.346;2022-12-24T05:53:43;10.50;99.90
1978;DHT22;989;53.016;8.346;2022-12-24T05:56:11;10.40;99.90
1978;DHT22;989;53.016;8.346;2022-12-24T05:58:39;10.40;99.90
1978;DHT22;989;53.016;8.346;2022-12-24T06:01:06;10.40;99.90
1978;DHT22;989;53.016;8.346;2022-12-24T06:03:33;10.40;99.90
1978;DHT22;989;53.016;8.346;2022-12-24T06:06:03;10.40;99.90
1978;DHT22;989;53.016;8.346;2022-12-24T06:08:38;10.40;99.90
1978;DHT22;989;53.016;8.346;2022-12-24T06:11:06;10.40;99.90
1978;DHT22;989;53.016;8.346;2022-12-24T06:13:34;10.30;99.90
1978;DHT22;989;53.016;8.346;2022-12-24T06:16:01;10.30;99.90
1978;DHT22;989;53.016;8.346;2022-12-24T06:18:29;10.30;99.90
1978;DHT22;989;53.016;8.346;2022-12-24T06:20:56;10.30;99.90
1978;DHT22;989;53.016;8.346;2022-12-24T06:23:22;10.30;99.90
1978;DHT22;989;53.016;8.346;2022-12-24T06:25:48;10.40;99.90
1978;DHT22;989;53.016;8.346;2022-12-24T06:28:15;10.40;99.90
1978;DHT22;989;53.016;8.346;2022-12-24T06:30:44;10.40;99.90
1978;DHT22;989;53.016;8.346;2022-12-24T06:33:11;10.40;99.90
1978;DHT22;989;53.016;8.346;2022-12-24T06:35:37;10.40;99.90
1978;DHT22;989;53.016;8.346;2022-12-24T06:38:02;10.40;99.90
1978;DHT22;989;53.016;8.346;2022-12-24T06:40:28;10.50;99.90
1978;DHT22;989;53.016;8.346;2022-12-24T06:42:54;10.50;99.90
1978;DHT22;989;53.016;8.346;2022-12-24T06:45:19;10.40;99.90
1978;DHT22;989;53.016;8.346;2022-12-24T06:47:45;10.40;99.90
1978;DHT22;989;53.016;8.346;2022-12-24T06:50:11;10.40;99.90
1978;DHT22;989;53.016;8.346;2022-12-24T06:52:36;10.50;99.90
1978;DHT22;989;53.016;8.346;2022-12-24T06:55:03;10.50;99.90
1978;DHT22;989;53.016;8.346;2022-12-24T06:57:29;10.50;99.90
1978;DHT22;989;53.016;8.346;2022-12-24T06:59:57;10.50;99.90
1978;DHT22;989;53.016;8.346;2022-12-24T07:02:23;10.50;99.90
1978;DHT22;989;53.016;8.346;2022-12-24T07:04:51;10.50;99.90
1978;DHT22;989;53.016;8.346;2022-12-24T07:07:17;10.50;99.90
1978;DHT22;989;53.016;8.346;2022-12-24T07:09:43;10.50;99.90
1978;DHT22;989;53.016;8.346;2022-12-24T07:12:08;10.50;99.90
1978;DHT22;989;53.016;8.346;2022-12-24T07:14:34;10.50;99.90
1978;DHT22;989;53.016;8.346;2022-12-24T07:17:00;10.40;99.90
1978;DHT22;989;53.016;8.346;2022-12-24T07:19:25;10.50;99.90
1978;DHT22;989;53.016;8.346;2022-12-24T07:21:51;10.50;99.90
1978;DHT22;989;53.016;8.346;2022-12-24T07:24:17;10.40;99.90
1978;DHT22;989;53.016;8.346;2022-12-24T07:26:43;10.40;99.90
1978;DHT22;989;53.016;8.346;2022-12-24T07:29:08;10.50;99.90
1978;DHT22;989;53.016;8.346;2022-12-24T07:31:34;10.50;99.90
1978;DHT22;989;53.016;8.346;2022-12-24T07:34:00;10.50;99.90
1978;DHT22;989;53.016;8.346;2022-12-24T07:36:25;10.50;99.90
1978;DHT22;989;53.016;8.346;2022-12-24T07:38:53;10.50;99.90
1978;DHT22;989;53.016;8.346;2022-12-24T07:41:19;10.50;99.90
1978;DHT22;989;53.016;8.346;2022-12-24T07:43:44;10.40;99.90
1978;DHT22;989;53.016;8.346;2022-12-24T07:46:10;10.40;99.90
1978;DHT22;989;53.016;8.346;2022-12-24T07:48:36;10.50;99.90
1978;DHT22;989;53.016;8.346;2022-12-24T07:51:02;10.50;99.90
1978;DHT22;989;53.016;8.346;2022-12-24T07:53:29;10.50;99.90
1978;DHT22;989;53.016;8.346;2022-12-24T07:55:56;10.50;99.90
1978;DHT22;989;53.016;8.346;2022-12-24T07:58:23;10.60;99.90
1978;DHT22;989;53.016;8.346;2022-12-24T08:00:55;10.60;99.90
1978;DHT22;989;53.016;8.346;2022-12-24T08:03:21;10.60;99.90
1978;DHT22;989;53.016;8.346;2022-12-24T08:05:47;10.50;99.90
1978;DHT22;989;53.016;8.346;2022-12-24T08:08:14;10.50;99.90
1978;DHT22;989;53.016;8.346;2022-12-24T08:10:40;10.50;99.90
1978;DHT22;989;53.016;8.346;2022-12-24T08:13:07;10.50;99.90
1978;DHT22;989;53.016;8.346;2022-12-24T08:15:33;10.50;99.90
1978;DHT22;989;53.016;8.346;2022-12-24T08:17:59;10.50;99.90
1978;DHT22;989;53.016;8.346;2022-12-24T08:20:25;10.50;99.90
1978;DHT22;989;53.016;8.346;2022-12-24T08:22:52;10.60;99.90
1978;DHT22;989;53.016;8.346;2022-12-24T08:25:17;10.60;99.90
1978;DHT22;989;53.016;8.346;2022-12-24T08:27:43;10.60;99.90
1978;DHT22;989;53.016;8.346;2022-12-24T08:30:09;10.60;99.90
1978;DHT22;989;53.016;8.346;2022-12-24T08:32:36;10.70;99.90
1978;DHT22;989;53.016;8.346;2022-12-24T08:35:02;10.70;99.90
1978;DHT22;989;53.016;8.346;2022-12-24T08:37:27;10.70;99.90
1978;DHT22;989;53.016;8.346;2022-12-24T08:39:53;10.70;99.90
1978;DHT22;989;53.016;8.346;2022-12-24T08:42:19;10.80;99.90
1978;DHT22;989;53.016;8.346;2022-12-24T08:44:44;10.80;99.90
1978;DHT22;989;53.016;8.346;2022-12-24T08:47:10;10.80;99.90
1978;DHT22;989;53.016;8.346;2022-12-24T08:49:36;10.80;99.90
1978;DHT22;989;53.016;8.346;2022-12-24T08:52:01;10.80;99.90
1978;DHT22;989;53.016;8.346;2022-12-24T08:54:27;10.80;99.90
1978;DHT22;989;53.016;8.346;2022-12-24T08:56:52;10.90;99.90
1978;DHT22;989;53.016;8.346;2022-12-24T08:59:18;10.90;99.90
1978;DHT22;989;53.016;8.346;2022-12-24T09:01:44;10.90;99.90
1978;DHT22;989;53.016;8.346;2022-12-24T09:04:09;10.90;99.90
1978;DHT22;989;53.016;8.346;2022-12-24T09:06:36;11.00;99.90
1978;DHT22;989;53.016;8.346;2022-12-24T09:09:03;11.00;99.90
1978;DHT22;989;53.016;8.346;2022-12-24T09:11:29;11.00;99.90
1978;DHT22;989;53.016;8.346;2022-12-24T09:13:55;11.00;99.90
1978;DHT22;989;53.016;8.346;2022-12-24T09:16:20;11.00;99.90
1978;DHT22;989;53.016;8.346;2022-12-24T09:18:46;11.00;99.90
1978;DHT22;989;53.016;8.346;2022-12-24T09:21:14;11.10;99.90
1978;DHT22;989;53.016;8.346;2022-12-24T09:23:41;11.10;99.90
1978;DHT22;989;53.016;8.346;2022-12-24T09:26:17;11.00;99.90
1978;DHT22;989;53.016;8.346;2022-12-24T09:28:45;11.00;99.90
1978;DHT22;989;53.016;8.346;2022-12-24T09:31:11;11.10;99.90
1978;DHT22;989;53.016;8.346;2022-12-24T09:33:39;11.10;99.90
1978;DHT22;989;53.016;8.346;2022-12-24T09:36:06;11.20;99.90
1978;DHT22;989;53.016;8.346;2022-12-24T09:38:33;11.20;99.90
1978;DHT22;989;53.016;8.346;2022-12-24T09:41:00;11.20;99.90
1978;DHT22;989;53.016;8.346;2022-12-24T09:43:30;11.10;99.90
1978;DHT22;989;53.016;8.346;2022-12-24T09:46:22;11.20;99.90
1978;DHT22;989;53.016;8.346;2022-12-24T09:48:56;11.10;99.90
1978;DHT22;989;53.016;8.346;2022-12-24T09:51:33;11.20;99.90
1978;DHT22;989;53.016;8.346;2022-12-24T09:54:14;11.20;99.90
1978;DHT22;989;53.016;8.346;2022-12-24T09:56:45;11.50;99.90
1978;DHT22;989;53.016;8.346;2022-12-24T09:59:17;11.50;99.90
1978;DHT22;989;53.016;8.346;2022-12-24T10:01:46;11.40;99.90
1978;DHT22;989;53.016;8.346;2022-12-24T10:04:16;11.40;99.90
1978;DHT22;989;53.016;8.346;2022-12-24T10:06:58;11.50;99.90
1978;DHT22;989;53.016;8.346;2022-12-24T10:09:42;11.40;99.90
1978;DHT22;989;53.016;8.346;2022-12-24T10:12:34;11.50;99.90
1978;DHT22;989;53.016;8.346;2022-12-24T10:23:45;11.50;99.90
1978;DHT22;989;53.016;8.346;2022-12-24T10:29:31;11.60;99.90
1978;DHT22;989;53.016;8.346;2022-12-24T10:34:45;11.70;99.90
1978;DHT22;989;53.016;8.346;2022-12-24T10:37:22;11.70;99.90
1978;DHT22;989;53.016;8.346;2022-12-24T10:39:49;11.80;99.90
1978;DHT22;989;53.016;8.346;2022-12-24T10:42:16;11.80;99.90
1978;DHT22;989;53.016;8.346;2022-12-24T10:44:45;11.80;99.90
1978;DHT22;989;53.016;8.346;2022-12-24T10:47:12;11.80;99.90
1978;DHT22;989;53.016;8.346;2022-12-24T10:49:46;11.70;99.90
1978;DHT22;989;53.016;8.346;2022-12-24T10:52:19;11.60;99.90
1978;DHT22;989;53.016;8.346;2022-12-24T10:57:44;11.50;99.90
1978;DHT22;989;53.016;8.346;2022-12-24T11:00:22;11.30;99.90
1978;DHT22;989;53.016;8.346;2022-12-24T11:06:16;11.30;99.90
1978;DHT22;989;53.016;8.346;2022-12-24T11:08:45;11.40;99.90
1978;DHT22;989;53.016;8.346;2022-12-24T11:11:15;11.40;99.90
1978;DHT22;989;53.016;8.346;2022-12-24T11:13:54;11.50;99.90
1978;DHT22;989;53.016;8.346;2022-12-24T11:19:15;11.70;99.90
1978;DHT22;989;53.016;8.346;2022-12-24T11:21:44;11.80;99.90
1978;DHT22;989;53.016;8.346;2022-12-24T11:26:40;11.70;99.90
1978;DHT22;989;53.016;8.346;2022-12-24T11:29:20;11.60;99.90
1978;DHT22;989;53.016;8.346;2022-12-24T11:31:48;11.60;99.90
1978;DHT22;989;53.016;8.346;2022-12-24T11:34:27;11.60;99.90
1978;DHT22;989;53.016;8.346;2022-12-24T11:37:09;11.60;99.90
1978;DHT22;989;53.016;8.346;2022-12-24T11:39:53;11.70;99.90
1978;DHT22;989;53.016;8.346;2022-12-24T11:42:33;11.80;99.90
1978;DHT22;989;53.016;8.346;2022-12-24T11:45:06;11.80;99.90
1978;DHT22;989;53.016;8.346;2022-12-24T11:47:42;11.80;99.90
1978;DHT22;989;53.016;8.346;2022-12-24T11:50:30;11.80;99.90
1978;DHT22;989;53.016;8.346;2022-12-24T11:53:04;11.80;99.90
1978;DHT22;989;53.016;8.346;2022-12-24T11:55:48;11.80;99.90
1978;DHT22;989;53.016;8.346;2022-12-24T12:01:27;11.80;99.90
1978;DHT22;989;53.016;8.346;2022-12-24T12:04:17;11.80;99.90
1978;DHT22;989;53.016;8.346;2022-12-24T12:06:59;12.00;99.90
1978;DHT22;989;53.016;8.346;2022-12-24T12:09:36;12.00;99.90
1978;DHT22;989;53.016;8.346;2022-12-24T12:12:14;11.90;99.90
1978;DHT22;989;53.016;8.346;2022-12-24T12:14:47;11.90;99.90
1978;DHT22;989;53.016;8.346;2022-12-24T12:17:23;11.90;99.90
1978;DHT22;989;53.016;8.346;2022-12-24T12:26:11;11.70;99.90
1978;DHT22;989;53.016;8.346;2022-12-24T12:28:58;11.90;99.90
1978;DHT22;989;53.016;8.346;2022-12-24T12:31:35;12.00;99.90
1978;DHT22;989;53.016;8.346;2022-12-24T12:36:57;12.00;99.90
1978;DHT22;989;53.016;8.346;2022-12-24T12:39:26;12.10;99.90
1978;DHT22;989;53.016;8.346;2022-12-24T12:44:40;12.30;99.90
1978;DHT22;989;53.016;8.346;2022-12-24T12:50:24;12.20;99.90
1978;DHT22;989;53.016;8.346;2022-12-24T12:53:12;12.20;99.90
1978;DHT22;989;53.016;8.346;2022-12-24T12:56:01;12.20;99.90
1978;DHT22;989;53.016;8.346;2022-12-24T12:58:55;12.40;99.90
1978;DHT22;989;53.016;8.346;2022-12-24T13:18:48;12.80;91.50
1978;DHT22;989;53.016;8.346;2022-12-24T13:21:19;12.70;87.20
1978;DHT22;989;53.016;8.346;2022-12-24T13:23:47;12.60;87.50
1978;DHT22;989;53.016;8.346;2022-12-24T13:26:13;12.70;82.40
1978;DHT22;989;53.016;8.346;2022-12-24T13:28:40;12.50;89.20
1978;DHT22;989;53.016;8.346;2022-12-24T13:36:15;12.20;94.20
1978;DHT22;989;53.016;8.346;2022-12-24T13:38:54;12.10;96.00
1978;DHT22;989;53.016;8.346;2022-12-24T13:49:42;11.80;99.90
1978;DHT22;989;53.016;8.346;2022-12-24T13:54:42;11.70;99.90
1978;DHT22;989;53.016;8.346;2022-12-24T14:02:54;11.80;99.90
1978;DHT22;989;53.016;8.346;2022-12-24T14:05:36;11.80;99.90
1978;DHT22;989;53.016;8.346;2022-12-24T14:18:39;11.30;99.90
1978;DHT22;989;53.016;8.346;2022-12-24T14:21:31;11.20;99.90
1978;DHT22;989;53.016;8.346;2022-12-24T14:24:04;11.30;99.90
1978;DHT22;989;53.016;8.346;2022-12-24T14:26:33;11.30;99.90
1978;DHT22;989;53.016;8.346;2022-12-24T14:29:06;11.30;99.90
1978;DHT22;989;53.016;8.346;2022-12-24T14:31:32;11.30;99.90
1978;DHT22;989;53.016;8.346;2022-12-24T14:34:11;11.20;99.90
1978;DHT22;989;53.016;8.346;2022-12-24T14:36:39;11.10;99.90
1978;DHT22;989;53.016;8.346;2022-12-24T14:39:08;11.00;99.90
1978;DHT22;989;53.016;8.346;2022-12-24T14:41:39;11.00;99.90
1978;DHT22;989;53.016;8.346;2022-12-24T14:44:27;11.00;99.90
1978;DHT22;989;53.016;8.346;2022-12-24T14:50:33;10.80;99.90
1978;DHT22;989;53.016;8.346;2022-12-24T14:55:46;10.80;99.90
1978;DHT22;989;53.016;8.346;2022-12-24T14:58:26;10.80;99.90
1978;DHT22;989;53.016;8.346;2022-12-24T15:00:59;10.70;99.90
1978;DHT22;989;53.016;8.346;2022-12-24T15:03:30;10.80;99.90
1978;DHT22;989;53.016;8.346;2022-12-24T15:06:03;10.80;99.90
1978;DHT22;989;53.016;8.346;2022-12-24T15:08:45;10.90;99.90
1978;DHT22;989;53.016;8.346;2022-12-24T15:11:19;10.90;99.90
1978;DHT22;989;53.016;8.346;2022-12-24T15:13:51;10.90;99.90
1978;DHT22;989;53.016;8.346;2022-12-24T15:16:33;11.00;99.90
1978;DHT22;989;53.016;8.346;2022-12-24T15:19:06;11.00;99.90
1978;DHT22;989;53.016;8.346;2022-12-24T15:21:41;11.10;99.90
1978;DHT22;989;53.016;8.346;2022-12-24T15:24:33;11.20;99.90
1978;DHT22;989;53.016;8.346;2022-12-24T15:27:02;11.20;97.80
1978;DHT22;989;53.016;8.346;2022-12-24T15:29:46;11.20;96.60
1978;DHT22;989;53.016;8.346;2022-12-24T15:32:15;11.10;96.00
1978;DHT22;989;53.016;8.346;2022-12-24T15:34:48;11.10;97.70
1978;DHT22;989;53.016;8.346;2022-12-24T15:37:28;11.00;99.50
1978;DHT22;989;53.016;8.346;2022-12-24T15:40:18;11.00;99.90
1978;DHT22;989;53.016;8.346;2022-12-24T15:42:45;10.90;99.90
1978;DHT22;989;53.016;8.346;2022-12-24T15:45:20;11.00;99.90
1978;DHT22;989;53.016;8.346;2022-12-24T15:48:15;10.90;99.90
1978;DHT22;989;53.016;8.346;2022-12-24T15:50:46;10.80;99.90
1978;DHT22;989;53.016;8.346;2022-12-24T15:53:19;10.70;99.90
1978;DHT22;989;53.016;8.346;2022-12-24T15:58:48;10.60;99.90
1978;DHT22;989;53.016;8.346;2022-12-24T16:03:52;10.60;99.90
1978;DHT22;989;53.016;8.346;2022-12-24T16:06:21;10.70;99.90
1978;DHT22;989;53.016;8.346;2022-12-24T16:08:47;10.70;99.90
1978;DHT22;989;53.016;8.346;2022-12-24T16:11:19;10.80;99.90
1978;DHT22;989;53.016;8.346;2022-12-24T16:14:24;10.70;99.90
1978;DHT22;989;53.016;8.346;2022-12-24T16:16:50;10.70;99.90
1978;DHT22;989;53.016;8.346;2022-12-24T16:19:22;10.80;99.90
1978;DHT22;989;53.016;8.346;2022-12-24T16:22:04;10.80;99.90
1978;DHT22;989;53.016;8.346;2022-12-24T16:24:48;10.80;99.90
1978;DHT22;989;53.016;8.346;2022-12-24T16:27:16;10.80;99.90
1978;DHT22;989;53.016;8.346;2022-12-24T16:29:42;10.70;99.90
1978;DHT22;989;53.016;8.346;2022-12-24T16:32:28;10.70;99.90
1978;DHT22;989;53.016;8.346;2022-12-24T16:34:56;10.70;99.90
1978;DHT22;989;53.016;8.346;2022-12-24T16:37:22;10.70;99.90
1978;DHT22;989;53.016;8.346;2022-12-24T16:39:48;10.80;99.90
1978;DHT22;989;53.016;8.346;2022-12-24T16:42:14;10.80;99.90
1978;DHT22;989;53.016;8.346;2022-12-24T16:44:59;10.80;99.90
1978;DHT22;989;53.016;8.346;2022-12-24T16:47:26;10.90;97.50
1978;DHT22;989;53.016;8.346;2022-12-24T16:49:56;10.90;96.10
1978;DHT22;989;53.016;8.346;2022-12-24T16:52:24;10.80;92.70
1978;DHT22;989;53.016;8.346;2022-12-24T16:54:53;10.90;86.00
1978;DHT22;989;53.016;8.346;2022-12-24T16:57:21;10.90;86.40
1978;DHT22;989;53.016;8.346;2022-12-24T16:59:47;10.80;89.00
1978;DHT22;989;53.016;8.346;2022-12-24T17:02:15;10.80;87.40
1978;DHT22;989;53.016;8.346;2022-12-24T17:04:43;10.80;84.90
1978;DHT22;989;53.016;8.346;2022-12-24T17:07:10;10.70;84.10
1978;DHT22;989;53.016;8.346;2022-12-24T17:09:37;10.70;84.60
1978;DHT22;989;53.016;8.346;2022-12-24T17:12:03;10.80;75.70
1978;DHT22;989;53.016;8.346;2022-12-24T17:14:28;10.80;74.50
1978;DHT22;989;53.016;8.346;2022-12-24T17:16:54;10.80;75.70
1978;DHT22;989;53.016;8.346;2022-12-24T17:19:20;10.80;69.10
1978;DHT22;989;53.016;8.346;2022-12-24T17:21:46;10.80;65.40
1978;DHT22;989;53.016;8.346;2022-12-24T17:24:12;10.80;66.80
1978;DHT22;989;53.016;8.346;2022-12-24T17:26:38;10.70;70.10
1978;DHT22;989;53.016;8.346;2022-12-24T17:29:04;10.70;73.60
1978;DHT22;989;53.016;8.346;2022-12-24T17:31:31;10.70;73.70
1978;DHT22;989;53.016;8.346;2022-12-24T17:33:58;10.60;72.00
1978;DHT22;989;53.016;8.346;2022-12-24T17:36:24;10.60;75.20
1978;DHT22;989;53.016;8.346;2022-12-24T17:38:50;10.60;79.30
1978;DHT22;989;53.016;8.346;2022-12-24T17:41:18;10.60;80.10
1978;DHT22;989;53.016;8.346;2022-12-24T17:43:45;10.50;81.90
1978;DHT22;989;53.016;8.346;2022-12-24T17:46:17;10.40;88.60
1978;DHT22;989;53.016;8.346;2022-12-24T17:48:47;10.30;91.00
1978;DHT22;989;53.016;8.346;2022-12-24T17:51:15;10.30;93.50
1978;DHT22;989;53.016;8.346;2022-12-24T17:53:42;10.20;96.40
1978;DHT22;989;53.016;8.346;2022-12-24T17:56:09;10.20;98.50
1978;DHT22;989;53.016;8.346;2022-12-24T17:58:40;10.20;99.60
1978;DHT22;989;53.016;8.346;2022-12-24T18:01:16;10.10;99.90
1978;DHT22;989;53.016;8.346;2022-12-24T18:03:43;10.00;99.90
1978;DHT22;989;53.016;8.346;2022-12-24T18:06:10;10.00;99.90
1978;DHT22;989;53.016;8.346;2022-12-24T18:08:37;9.90;99.90
1978;DHT22;989;53.016;8.346;2022-12-24T18:11:12;9.70;99.90
1978;DHT22;989;53.016;8.346;2022-12-24T18:13:39;9.40;99.90
1978;DHT22;989;53.016;8.346;2022-12-24T18:16:16;9.40;99.90
1978;DHT22;989;53.016;8.346;2022-12-24T18:18:44;9.30;99.90
1978;DHT22;989;53.016;8.346;2022-12-24T18:21:10;9.10;99.90
1978;DHT22;989;53.016;8.346;2022-12-24T18:23:36;9.00;99.90
1978;DHT22;989;53.016;8.346;2022-12-24T18:26:03;8.90;99.90
1978;DHT22;989;53.016;8.346;2022-12-24T18:28:30;8.80;99.90
1978;DHT22;989;53.016;8.346;2022-12-24T18:31:01;8.70;99.90
1978;DHT22;989;53.016;8.346;2022-12-24T18:33:29;8.60;99.90
1978;DHT22;989;53.016;8.346;2022-12-24T18:35:56;8.60;99.90
1978;DHT22;989;53.016;8.346;2022-12-24T18:38:22;8.60;99.90
1978;DHT22;989;53.016;8.346;2022-12-24T18:40:48;8.50;99.90
1978;DHT22;989;53.016;8.346;2022-12-24T18:43:14;8.30;99.90
1978;DHT22;989;53.016;8.346;2022-12-24T18:45:43;8.20;99.90
1978;DHT22;989;53.016;8.346;2022-12-24T18:48:11;8.20;99.90
1978;DHT22;989;53.016;8.346;2022-12-24T18:50:39;8.10;99.90
1978;DHT22;989;53.016;8.346;2022-12-24T18:53:06;7.90;99.90